EGHH Airport Information

Runway Information
Runway 08 Length 7451 ft width 151 ft
Elevation 38 ft Threshold 1383 ft Heading 75
Runway 26 Length 7451 ft Width 151 ft
Elevation 31 ft Threshold ft Heading 255
Airport Frequencies
Type APP Name APP Frequency 119.475 MHZ
Type ATIS Name ATIS Frequency 121.95 MHZ
Type GND Name GND Frequency 121.7 MHZ
Type TWR Name TWR Frequency 125.6 MHZ
Airport Navaids
Airport Weather Information & NOTAM
ADDS - METARS form results

(1624 UTC 05 October 2022)
Data provider http://aviationweather.gov/metar/data/
 
METAR text: EGHH 051620Z 28015KT 9999 FEW028 15/08 Q1015
Conditions at: EGHH (BOURNEMOUTH AIRP, GB) observed 1620 UTC 05 October 2022
Temperature: 15.0°C (59°F)
Dewpoint: 8.0°C (46°F) [RH = 63%]
Pressure (altimeter): 29.97 inches Hg (1015.0 mb)
Winds: from the W (280 degrees) at 17 MPH (15 knots; 7.7 m/s)
Visibility: 6 or more miles (10+ km)
Ceiling: at least 12,000 feet AGL
Clouds: few clouds at 2800 feet AGL
Weather: no significant weather observed at this time

METAR text: EGHH 051550Z 26013KT 9999 VCSH SCT032 16/10 Q1014
Conditions at: EGHH (BOURNEMOUTH AIRP, GB) observed 1550 UTC 05 October 2022
Temperature: 16.0°C (61°F)
Dewpoint: 10.0°C (50°F) [RH = 68%]
Pressure (altimeter): 29.94 inches Hg (1014.0 mb)
Winds: from the W (260 degrees) at 15 MPH (13 knots; 6.7 m/s)
Visibility: 6 or more miles (10+ km)
Ceiling: at least 12,000 feet AGL
Clouds: scattered clouds at 3200 feet AGL
Weather: VCSH  (showers in vicinity)

Forecast for: EGHH (BOURNEMOUTH AIRP, GB)
Text: TAF EGHH 051358Z 0515/0524 26012KT 9999 SCT020
Forecast period: 1500 UTC 05 October 2022 to 0000 UTC 06 October 2022
Forecast type: FROM: standard forecast or significant change
Winds: from the W (260 degrees) at 14 MPH (12 knots; 6.2 m/s)
Visibility: 6 or more miles (10+ km)
Ceiling: at least 12,000 feet AGL
Clouds: scattered clouds at 2000 feet AGL
Weather: no significant weather forecast for this period
Text: PROB30
Forecast period: 1500 to 1800 UTC 05 October 2022
Forecast type: TEMPORARY: The following changes expected for less than half the time period
Winds: from the W (270 degrees) at 17 MPH (15 knots; 7.7 m/s)
gusting to 29 MPH (25 knots; 12.9 m/s)
Visibility: 4 miles (7 km)
Ceiling: unknown
Clouds: missing
Weather: SHRA  (rain showers)
Text: TEMPO 0515/0518 27015G25KT 7000 SHRA
Forecast period: 1800 UTC 05 October 2022 to 0000 UTC 06 October 2022
Forecast type: TEMPORARY: The following changes expected for less than half the time period
Winds: from the W (270 degrees) at 17 MPH (15 knots; 7.7 m/s)
gusting to 29 MPH (25 knots; 12.9 m/s)
Visibility: missing
Ceiling: unknown
Clouds: missing
Weather: no significant weather forecast for this period